createdAt,value
2024-01-24T00:01:21.935Z,20.20
2024-01-24T00:03:49.209Z,18.10
2024-01-24T00:06:16.378Z,20.27
2024-01-24T00:08:43.386Z,20.67
2024-01-24T00:11:10.502Z,20.13
2024-01-24T00:13:38.470Z,17.20
2024-01-24T00:16:05.572Z,16.77
2024-01-24T00:18:33.204Z,21.03
2024-01-24T00:21:00.424Z,26.17
2024-01-24T00:23:27.431Z,20.20
2024-01-24T00:25:54.545Z,18.27
2024-01-24T00:28:22.685Z,21.73
2024-01-24T00:30:49.844Z,21.93
2024-01-24T00:33:17.108Z,17.63
2024-01-24T00:35:44.112Z,20.47
2024-01-24T00:38:11.342Z,17.87
2024-01-24T00:40:38.388Z,15.73
2024-01-24T00:43:06.626Z,15.30
2024-01-24T00:45:33.608Z,20.40
2024-01-24T00:48:00.763Z,18.53
2024-01-24T00:50:28.103Z,19.23
2024-01-24T00:52:56.909Z,18.00
2024-01-24T00:55:26.120Z,21.07
2024-01-24T00:57:53.682Z,19.07
2024-01-24T01:00:20.961Z,19.07
2024-01-24T01:02:48.095Z,22.13
2024-01-24T01:05:15.212Z,16.07
2024-01-24T01:07:42.271Z,17.83
2024-01-24T01:10:12.552Z,19.17
2024-01-24T01:12:39.699Z,20.63
2024-01-24T01:15:07.390Z,20.63
2024-01-24T01:17:34.446Z,20.37
2024-01-24T01:20:01.593Z,19.17
2024-01-24T01:22:29.089Z,22.33
2024-01-24T01:24:57.637Z,19.70
2024-01-24T01:27:25.809Z,18.17
2024-01-24T01:29:52.893Z,18.67
2024-01-24T01:32:19.922Z,22.97
2024-01-24T01:34:47.012Z,20.13
2024-01-24T01:37:14.070Z,22.03
2024-01-24T01:39:41.221Z,20.37
2024-01-24T01:42:08.525Z,16.47
2024-01-24T01:44:44.382Z,16.83
2024-01-24T01:47:12.188Z,18.17
2024-01-24T01:49:39.732Z,14.67
2024-01-24T01:52:08.125Z,15.33
2024-01-24T01:54:35.296Z,16.17
2024-01-24T01:57:03.360Z,13.93
2024-01-24T01:59:30.465Z,15.03
2024-01-24T02:02:01.867Z,15.63
2024-01-24T02:04:32.734Z,17.00
2024-01-24T02:07:00.392Z,15.40
2024-01-24T02:09:28.635Z,16.80
2024-01-24T02:11:56.126Z,16.83
2024-01-24T02:14:23.348Z,17.40
2024-01-24T02:16:50.654Z,15.43
2024-01-24T02:19:17.775Z,18.77
2024-01-24T02:21:44.963Z,14.50
2024-01-24T02:24:13.714Z,18.27
2024-01-24T02:26:40.903Z,16.60
2024-01-24T02:29:07.973Z,13.93
2024-01-24T02:31:34.918Z,19.87
2024-01-24T02:34:02.116Z,17.47
2024-01-24T02:36:29.142Z,15.70
2024-01-24T02:38:58.558Z,16.53
2024-01-24T02:41:25.944Z,20.33
2024-01-24T02:43:53.006Z,15.70
2024-01-24T02:46:20.412Z,17.83
2024-01-24T02:48:47.454Z,16.63
2024-01-24T02:51:25.316Z,17.17
2024-01-24T02:53:53.441Z,17.20
2024-01-24T02:56:20.838Z,15.53
2024-01-24T02:58:48.124Z,16.40
2024-01-24T03:01:17.396Z,15.00
2024-01-24T03:03:45.308Z,16.90
2024-01-24T03:06:12.708Z,15.43
2024-01-24T03:08:56.209Z,15.33
2024-01-24T03:11:26.842Z,18.03
2024-01-24T03:13:53.852Z,16.33
2024-01-24T03:16:20.978Z,15.23
2024-01-24T03:18:49.440Z,19.90
2024-01-24T03:21:18.894Z,17.10
2024-01-24T03:23:46.424Z,21.77
2024-01-24T03:26:16.685Z,16.33
2024-01-24T03:28:44.280Z,14.67
2024-01-24T03:31:11.726Z,17.07
2024-01-24T03:33:39.032Z,20.07
2024-01-24T03:36:06.410Z,20.73
2024-01-24T03:38:34.393Z,17.67
2024-01-24T03:41:01.974Z,19.20
2024-01-24T03:43:29.310Z,20.80
2024-01-24T03:45:56.465Z,21.37
2024-01-24T03:48:23.776Z,22.83
2024-01-24T03:50:50.929Z,22.70
2024-01-24T03:53:17.978Z,23.47
2024-01-24T03:55:45.009Z,19.37
2024-01-24T03:58:12.084Z,21.87
2024-01-24T04:00:39.274Z,21.63
2024-01-24T04:03:06.459Z,29.03
2024-01-24T04:05:33.670Z,27.13
2024-01-24T04:08:00.915Z,29.63
2024-01-24T04:10:28.266Z,28.03
2024-01-24T04:12:55.427Z,22.53
2024-01-24T04:15:23.391Z,28.27
2024-01-24T04:17:50.671Z,25.43
2024-01-24T04:20:19.747Z,21.50
2024-01-24T04:22:46.750Z,20.57
2024-01-24T04:25:13.847Z,24.23
2024-01-24T04:27:41.172Z,28.77
2024-01-24T04:30:08.955Z,25.03
2024-01-24T04:32:36.162Z,22.30
2024-01-24T04:35:03.408Z,25.33
2024-01-24T04:37:31.652Z,19.61
2024-01-24T04:39:58.693Z,20.17
2024-01-24T04:42:26.146Z,24.17
2024-01-24T04:44:53.230Z,24.13
2024-01-24T04:47:20.268Z,24.00
2024-01-24T04:49:47.671Z,27.83
2024-01-24T04:52:15.693Z,21.60
2024-01-24T04:54:43.442Z,29.10
2024-01-24T04:57:10.726Z,24.23
2024-01-24T04:59:45.969Z,28.60
2024-01-24T05:02:21.083Z,31.77
2024-01-24T05:04:49.146Z,24.33
2024-01-24T05:07:16.769Z,28.37
2024-01-24T05:09:44.039Z,31.67
2024-01-24T05:12:11.491Z,26.70
2024-01-24T05:14:38.563Z,23.73
2024-01-24T05:17:05.650Z,21.90
2024-01-24T05:19:33.292Z,23.37
2024-01-24T05:22:00.495Z,27.93
2024-01-24T05:24:27.682Z,25.58
2024-01-24T05:26:54.672Z,20.90
2024-01-24T05:29:21.813Z,24.07
2024-01-24T05:31:49.243Z,23.63
2024-01-24T05:34:16.461Z,24.93
2024-01-24T05:36:43.683Z,25.87
2024-01-24T05:39:11.321Z,21.38
2024-01-24T05:41:38.349Z,20.70
2024-01-24T05:44:05.475Z,23.33
2024-01-24T05:46:32.440Z,25.23
2024-01-24T05:49:02.047Z,33.43
2024-01-24T05:51:29.851Z,33.73
2024-01-24T05:53:56.971Z,28.20
2024-01-24T05:56:24.035Z,24.47
2024-01-24T05:58:51.479Z,27.10
2024-01-24T06:01:18.778Z,30.13
2024-01-24T06:03:45.997Z,29.10
2024-01-24T06:06:13.204Z,27.40
2024-01-24T06:08:41.188Z,30.57
2024-01-24T06:11:08.556Z,32.40
2024-01-24T06:13:35.959Z,27.30
2024-01-24T06:16:03.207Z,29.17
2024-01-24T06:18:30.458Z,36.63
2024-01-24T06:20:57.493Z,32.77
2024-01-24T06:23:24.721Z,32.13
2024-01-24T06:25:51.708Z,28.27
2024-01-24T06:28:18.787Z,29.60
2024-01-24T06:30:47.176Z,33.43
2024-01-24T06:33:14.626Z,32.43
2024-01-24T06:35:42.127Z,32.97
2024-01-24T06:38:09.161Z,31.95
2024-01-24T06:40:36.179Z,37.10
2024-01-24T06:43:03.509Z,28.85
2024-01-24T06:45:30.600Z,30.03
2024-01-24T06:47:57.926Z,30.33
2024-01-24T06:50:25.527Z,32.67
2024-01-24T06:52:52.602Z,32.17
2024-01-24T06:55:19.655Z,24.07
2024-01-24T06:57:46.922Z,31.60
2024-01-24T07:00:14.297Z,31.50
2024-01-24T07:02:41.343Z,30.87
2024-01-24T07:05:08.524Z,28.67
2024-01-24T07:07:35.682Z,30.43
2024-01-24T07:10:03.691Z,33.83
2024-01-24T07:12:31.437Z,28.40
2024-01-24T07:14:58.546Z,28.02
2024-01-24T07:17:25.560Z,30.67
2024-01-24T07:19:53.034Z,28.58
2024-01-24T07:22:20.063Z,28.35
2024-01-24T07:24:47.507Z,25.47
2024-01-24T07:27:14.726Z,23.67
2024-01-24T07:29:41.711Z,25.07
2024-01-24T07:32:08.739Z,23.50
2024-01-24T07:34:39.970Z,30.13
2024-01-24T07:37:07.462Z,23.27
2024-01-24T07:39:35.131Z,26.25
2024-01-24T07:42:02.281Z,23.70
2024-01-24T07:44:29.265Z,28.17
2024-01-24T07:46:57.357Z,28.25
2024-01-24T07:49:24.533Z,28.90
2024-01-24T07:51:53.374Z,24.67
2024-01-24T07:54:21.890Z,27.87
2024-01-24T07:56:49.287Z,25.45
2024-01-24T07:59:17.884Z,26.80
2024-01-24T08:01:49.583Z,26.70
2024-01-24T08:04:17.333Z,28.15
2024-01-24T08:06:49.337Z,25.33
2024-01-24T08:09:19.445Z,25.73
2024-01-24T08:11:46.928Z,24.25
2024-01-24T08:14:14.122Z,22.30
2024-01-24T08:16:41.502Z,27.05
2024-01-24T08:19:08.546Z,22.98
2024-01-24T08:21:35.997Z,22.90
2024-01-24T08:24:03.223Z,25.08
2024-01-24T08:26:30.209Z,26.85
2024-01-24T08:29:00.424Z,29.05
2024-01-24T08:31:27.759Z,33.60
2024-01-24T08:33:54.966Z,37.13
2024-01-24T08:36:22.091Z,31.17
2024-01-24T08:38:50.210Z,28.40
2024-01-24T08:41:17.224Z,32.33
2024-01-24T08:43:44.164Z,35.08
2024-01-24T08:46:11.196Z,34.13
2024-01-24T08:48:38.411Z,48.83
2024-01-24T08:51:05.649Z,36.45
2024-01-24T08:53:32.626Z,41.90
2024-01-24T08:55:59.569Z,37.17
2024-01-24T08:58:26.793Z,40.55
2024-01-24T09:00:54.040Z,36.97
2024-01-24T09:03:21.505Z,25.65
2024-01-24T09:05:52.220Z,27.55
2024-01-24T09:08:19.571Z,25.27
2024-01-24T09:10:46.703Z,20.80
2024-01-24T09:13:14.517Z,23.58
2024-01-24T09:15:41.751Z,23.52
2024-01-24T09:18:09.490Z,22.05
2024-01-24T09:20:37.131Z,25.08
2024-01-24T09:23:04.187Z,31.20
2024-01-24T09:25:32.029Z,21.60
2024-01-24T09:27:59.640Z,20.38
2024-01-24T09:30:26.831Z,22.27
2024-01-24T09:32:53.946Z,15.45
2024-01-24T09:35:21.737Z,17.73
2024-01-24T09:37:48.905Z,21.70
2024-01-24T09:40:16.659Z,18.52
2024-01-24T09:42:45.676Z,23.63
2024-01-24T09:45:17.950Z,22.13
2024-01-24T09:47:48.469Z,21.10
2024-01-24T09:50:15.842Z,18.90
2024-01-24T09:52:44.888Z,18.20
2024-01-24T09:55:17.695Z,17.05
2024-01-24T09:57:46.912Z,27.75
2024-01-24T10:00:15.991Z,47.60
2024-01-24T10:02:48.106Z,36.25
2024-01-24T10:05:18.318Z,24.77
2024-01-24T10:07:45.378Z,22.10
2024-01-24T10:10:17.036Z,20.85
2024-01-24T10:12:45.757Z,20.27
2024-01-24T10:15:13.411Z,25.45
2024-01-24T10:17:44.602Z,27.20
2024-01-24T10:20:15.793Z,26.23
2024-01-24T10:22:47.065Z,24.77
2024-01-24T10:25:14.562Z,29.45
2024-01-24T10:27:45.356Z,27.30
2024-01-24T10:30:14.037Z,24.58
2024-01-24T10:32:47.185Z,27.05
2024-01-24T10:35:14.600Z,23.20
2024-01-24T10:37:43.422Z,24.85
2024-01-24T10:40:16.341Z,24.10
2024-01-24T10:42:44.755Z,21.15
2024-01-24T10:45:12.207Z,20.35
2024-01-24T10:47:41.862Z,25.88
2024-01-24T10:50:11.644Z,21.20
2024-01-24T10:52:40.415Z,21.55
2024-01-24T10:55:12.663Z,25.80
2024-01-24T10:57:43.838Z,29.05
2024-01-24T11:00:12.933Z,23.05
2024-01-24T11:02:45.125Z,26.20
2024-01-24T11:05:20.943Z,19.55
2024-01-24T11:08:20.578Z,24.53
2024-01-24T11:10:49.989Z,20.02
2024-01-24T11:13:19.285Z,18.77
2024-01-24T11:15:47.845Z,19.83
2024-01-24T11:18:22.732Z,15.50
2024-01-24T11:21:00.032Z,19.25
2024-01-24T11:23:40.479Z,17.92
2024-01-24T11:26:12.243Z,22.52
2024-01-24T11:28:39.730Z,23.20
2024-01-24T11:31:08.616Z,16.85
2024-01-24T11:33:36.526Z,13.68
2024-01-24T11:36:07.212Z,15.23
2024-01-24T11:38:35.494Z,15.73
2024-01-24T11:41:25.243Z,19.92
2024-01-24T11:43:52.325Z,15.55
2024-01-24T11:46:22.917Z,23.95
2024-01-24T11:48:51.007Z,22.45
2024-01-24T11:51:19.333Z,15.80
2024-01-24T11:53:46.610Z,19.45
2024-01-24T11:56:17.754Z,20.73
2024-01-24T11:58:45.030Z,18.60
2024-01-24T12:01:13.140Z,18.73
2024-01-24T12:03:48.669Z,34.50
2024-01-24T12:06:16.416Z,17.80
2024-01-24T12:08:49.862Z,23.67
2024-01-24T12:11:18.677Z,24.17
2024-01-24T12:13:46.112Z,27.48
2024-01-24T12:16:13.650Z,24.17
2024-01-24T12:18:42.283Z,27.08
2024-01-24T12:21:10.628Z,23.13
2024-01-24T12:23:38.305Z,19.15
2024-01-24T12:26:05.662Z,24.77
2024-01-24T12:28:32.861Z,22.25
2024-01-24T12:31:04.614Z,24.50
2024-01-24T12:33:34.857Z,22.88
2024-01-24T12:36:07.700Z,21.52
2024-01-24T12:38:36.336Z,22.05
2024-01-24T12:41:03.536Z,21.92
2024-01-24T12:43:31.318Z,23.75
2024-01-24T12:46:05.625Z,22.45
2024-01-24T12:48:33.326Z,18.95
2024-01-24T12:51:00.509Z,17.52
2024-01-24T12:53:27.695Z,19.25
2024-01-24T12:55:54.850Z,25.48
2024-01-24T12:58:22.049Z,21.48
2024-01-24T13:00:49.909Z,18.25
2024-01-24T13:03:20.620Z,26.60
2024-01-24T13:05:51.469Z,20.77
2024-01-24T13:08:19.434Z,17.00
2024-01-24T13:10:47.626Z,23.67
2024-01-24T13:13:15.617Z,27.05
2024-01-24T13:15:43.627Z,20.25
2024-01-24T13:18:11.536Z,18.20
2024-01-24T13:20:38.726Z,22.02
2024-01-24T13:23:05.721Z,22.60
2024-01-24T13:25:32.841Z,19.17
2024-01-24T13:28:00.938Z,20.48
2024-01-24T13:30:28.799Z,23.70
2024-01-24T13:32:56.238Z,22.52
2024-01-24T13:35:23.523Z,20.27
2024-01-24T13:37:50.818Z,29.02
2024-01-24T13:40:19.003Z,24.30
2024-01-24T13:42:46.792Z,21.67
2024-01-24T13:45:14.615Z,19.48
2024-01-24T13:47:42.257Z,20.45
2024-01-24T13:50:10.978Z,21.42
2024-01-24T13:52:39.230Z,20.20
2024-01-24T13:55:09.742Z,17.27
2024-01-24T13:57:39.748Z,20.15
2024-01-24T14:00:12.823Z,15.50
2024-01-24T14:02:40.972Z,21.60
2024-01-24T14:05:11.144Z,21.20
2024-01-24T14:07:40.195Z,18.55
2024-01-24T14:10:08.463Z,17.55
2024-01-24T14:12:35.586Z,17.63
2024-01-24T14:15:14.813Z,13.88
2024-01-24T14:17:48.038Z,18.98
2024-01-24T14:20:16.309Z,19.50
2024-01-24T14:22:43.399Z,15.50
2024-01-24T14:25:11.651Z,20.42
2024-01-24T14:27:38.969Z,19.02
2024-01-24T14:30:07.173Z,17.25
2024-01-24T14:32:34.493Z,17.48
2024-01-24T14:35:01.707Z,19.48
2024-01-24T14:37:32.057Z,17.42
2024-01-24T14:40:00.591Z,17.00
2024-01-24T14:42:27.799Z,18.38
2024-01-24T14:44:55.446Z,18.92
2024-01-24T14:47:22.650Z,17.94
2024-01-24T14:49:49.808Z,16.75
2024-01-24T14:52:17.018Z,25.10
2024-01-24T14:54:44.190Z,22.70
2024-01-24T14:57:11.570Z,16.15
2024-01-24T14:59:38.692Z,13.13
2024-01-24T15:02:05.798Z,23.17
2024-01-24T15:04:32.884Z,20.17
2024-01-24T15:07:00.528Z,18.40
2024-01-24T15:09:27.697Z,16.52
2024-01-24T15:11:55.006Z,20.80
2024-01-24T15:14:22.019Z,23.75
2024-01-24T15:16:49.021Z,24.92
2024-01-24T15:19:16.396Z,34.05
2024-01-24T15:21:43.454Z,28.45
2024-01-24T15:24:10.873Z,26.95
2024-01-24T15:26:37.951Z,26.13
2024-01-24T15:29:05.284Z,30.75
2024-01-24T15:31:32.340Z,29.70
2024-01-24T15:33:59.915Z,27.00
2024-01-24T15:36:27.122Z,27.90
2024-01-24T15:38:56.148Z,39.42
2024-01-24T15:41:23.370Z,37.33
2024-01-24T15:43:51.009Z,32.15
2024-01-24T15:46:18.464Z,21.92
2024-01-24T15:48:46.010Z,31.55
2024-01-24T15:51:14.145Z,24.67
2024-01-24T15:53:41.395Z,19.05
2024-01-24T15:56:08.884Z,21.60
2024-01-24T15:58:38.257Z,29.52
2024-01-24T16:01:07.323Z,24.60
2024-01-24T16:03:35.652Z,22.73
2024-01-24T16:06:03.466Z,27.55
2024-01-24T16:08:31.496Z,20.13
2024-01-24T16:11:00.623Z,24.88
2024-01-24T16:13:28.789Z,25.20
2024-01-24T16:15:56.422Z,21.45
2024-01-24T16:18:24.506Z,25.48
2024-01-24T16:20:52.317Z,26.95
2024-01-24T16:23:20.177Z,18.75
2024-01-24T16:25:49.970Z,21.45
2024-01-24T16:28:17.997Z,23.70
2024-01-24T16:30:47.004Z,22.25
2024-01-24T16:33:15.071Z,21.05
2024-01-24T16:35:42.862Z,21.00
2024-01-24T16:38:12.887Z,27.05
2024-01-24T16:40:40.485Z,20.45
2024-01-24T16:43:11.396Z,18.88
2024-01-24T16:45:41.596Z,20.80
2024-01-24T16:48:11.634Z,26.15
2024-01-24T16:50:42.667Z,25.05
2024-01-24T16:53:11.274Z,23.15
2024-01-24T16:55:39.466Z,24.55
2024-01-24T16:58:07.360Z,24.70
2024-01-24T17:00:35.618Z,24.65
2024-01-24T17:03:03.354Z,21.77
2024-01-24T17:05:30.780Z,23.85
2024-01-24T17:07:58.449Z,22.15
2024-01-24T17:10:25.518Z,21.30
2024-01-24T17:12:52.647Z,23.52
2024-01-24T17:15:19.862Z,20.98
2024-01-24T17:17:47.261Z,22.48
2024-01-24T17:20:14.375Z,23.05
2024-01-24T17:22:41.589Z,19.88
2024-01-24T17:25:10.922Z,19.40
2024-01-24T17:27:38.167Z,18.55
2024-01-24T17:30:06.189Z,21.33
2024-01-24T17:32:33.393Z,20.08
2024-01-24T17:35:00.661Z,20.98
2024-01-24T17:37:27.882Z,24.05
2024-01-24T17:39:55.327Z,23.15
2024-01-24T17:42:22.969Z,23.63
2024-01-24T17:44:50.132Z,25.77
2024-01-24T17:47:18.716Z,19.58
2024-01-24T17:49:46.491Z,19.13
2024-01-24T17:52:14.055Z,24.35
2024-01-24T17:54:41.505Z,22.13
2024-01-24T17:57:08.784Z,24.75
2024-01-24T17:59:36.074Z,19.77
2024-01-24T18:02:03.486Z,18.58
2024-01-24T18:04:30.801Z,21.25
2024-01-24T18:06:58.352Z,24.05
2024-01-24T18:09:25.752Z,17.58
2024-01-24T18:11:53.050Z,18.67
2024-01-24T18:14:20.615Z,20.88
2024-01-24T18:16:47.871Z,27.65
2024-01-24T18:19:15.783Z,19.98
2024-01-24T18:21:43.645Z,21.50
2024-01-24T18:24:10.732Z,19.80
2024-01-24T18:26:37.836Z,26.40
2024-01-24T18:29:05.186Z,19.23
2024-01-24T18:31:32.319Z,20.17
2024-01-24T18:33:59.404Z,20.45
2024-01-24T18:36:26.646Z,24.08
2024-01-24T18:38:53.829Z,23.58
2024-01-24T18:41:23.206Z,18.92
2024-01-24T18:43:53.036Z,23.25
2024-01-24T18:46:21.316Z,24.58
2024-01-24T18:48:49.066Z,17.67
2024-01-24T18:51:17.557Z,15.48
2024-01-24T18:53:45.387Z,18.00
2024-01-24T18:56:12.898Z,21.23
2024-01-24T18:58:40.402Z,18.60
2024-01-24T19:01:08.343Z,20.85
2024-01-24T19:03:35.862Z,22.38
2024-01-24T19:06:03.258Z,24.42
2024-01-24T19:08:33.962Z,23.85
2024-01-24T19:11:03.547Z,15.32
2024-01-24T19:13:31.731Z,20.73
2024-01-24T19:15:59.426Z,21.10
2024-01-24T19:18:27.994Z,23.33
2024-01-24T19:20:55.403Z,15.25
2024-01-24T19:23:23.771Z,16.95
2024-01-24T19:25:50.925Z,18.53
2024-01-24T19:28:18.329Z,15.20
2024-01-24T19:30:45.410Z,21.58
2024-01-24T19:33:12.775Z,23.67
2024-01-24T19:35:41.052Z,19.50
2024-01-24T19:38:08.408Z,22.65
2024-01-24T19:40:35.421Z,20.20
2024-01-24T19:43:02.949Z,20.83
2024-01-24T19:45:30.216Z,15.52
2024-01-24T19:47:57.597Z,20.90
2024-01-24T19:50:24.826Z,22.80
2024-01-24T19:52:52.490Z,16.30
2024-01-24T19:55:21.481Z,22.52
2024-01-24T19:57:48.511Z,18.60
2024-01-24T20:00:15.986Z,20.13
2024-01-24T20:02:43.038Z,19.05
2024-01-24T20:05:10.273Z,18.55
2024-01-24T20:07:37.400Z,17.80
2024-01-24T20:10:04.698Z,20.38
2024-01-24T20:12:31.776Z,20.58
2024-01-24T20:14:58.896Z,22.65
2024-01-24T20:17:27.186Z,17.92
2024-01-24T20:19:54.794Z,18.30
2024-01-24T20:22:21.789Z,17.52
2024-01-24T20:24:48.927Z,18.55
2024-01-24T20:27:16.025Z,18.55
2024-01-24T20:29:44.647Z,17.08
2024-01-24T20:32:12.904Z,20.20
2024-01-24T20:34:40.002Z,14.88
2024-01-24T20:37:08.578Z,18.10
2024-01-24T20:39:38.440Z,19.42
2024-01-24T20:42:11.101Z,23.10
2024-01-24T20:44:41.275Z,17.90
2024-01-24T20:47:08.566Z,20.95
2024-01-24T20:49:35.844Z,22.63
2024-01-24T20:52:03.037Z,21.65
2024-01-24T20:54:30.099Z,17.08
2024-01-24T20:56:57.075Z,18.48
2024-01-24T20:59:25.820Z,21.40
2024-01-24T21:01:55.209Z,21.33
2024-01-24T21:04:22.835Z,19.80
2024-01-24T21:06:50.139Z,18.27
2024-01-24T21:09:18.297Z,19.23
2024-01-24T21:11:45.280Z,21.05
2024-01-24T21:14:12.595Z,22.40
2024-01-24T21:16:39.620Z,27.05
2024-01-24T21:19:06.762Z,23.52
2024-01-24T21:21:33.866Z,25.98
2024-01-24T21:24:00.948Z,23.52
2024-01-24T21:26:28.012Z,27.80
2024-01-24T21:28:55.024Z,26.45
2024-01-24T21:31:22.432Z,21.45
2024-01-24T21:33:49.621Z,24.15
2024-01-24T21:36:16.663Z,22.05
2024-01-24T21:38:43.683Z,25.30
2024-01-24T21:41:10.720Z,24.63
2024-01-24T21:43:37.716Z,24.42
2024-01-24T21:46:05.093Z,22.08
2024-01-24T21:48:32.156Z,24.48
2024-01-24T21:50:59.136Z,21.95
2024-01-24T21:53:26.128Z,22.13
2024-01-24T21:55:53.103Z,24.77
2024-01-24T21:58:20.172Z,24.33
2024-01-24T22:00:47.325Z,20.00
2024-01-24T22:03:14.770Z,19.80
2024-01-24T22:05:41.962Z,22.38
2024-01-24T22:08:09.100Z,19.67
2024-01-24T22:10:36.170Z,23.15
2024-01-24T22:13:03.274Z,18.58
2024-01-24T22:15:32.130Z,27.05
2024-01-24T22:17:59.198Z,22.42
2024-01-24T22:20:26.398Z,24.85
2024-01-24T22:22:53.527Z,19.30
2024-01-24T22:25:20.611Z,21.38
2024-01-24T22:27:47.881Z,17.50
2024-01-24T22:30:15.283Z,21.00
2024-01-24T22:32:42.307Z,26.98
2024-01-24T22:35:09.794Z,21.92
2024-01-24T22:37:36.828Z,19.48
2024-01-24T22:40:06.269Z,21.77
2024-01-24T22:42:33.525Z,17.10
2024-01-24T22:45:00.678Z,20.30
2024-01-24T22:47:27.779Z,21.67
2024-01-24T22:49:55.005Z,20.55
2024-01-24T22:52:22.873Z,19.55
2024-01-24T22:54:51.726Z,20.90
2024-01-24T22:57:19.662Z,16.52
2024-01-24T22:59:46.750Z,19.55
2024-01-24T23:02:13.863Z,18.10
2024-01-24T23:04:41.658Z,21.33
2024-01-24T23:07:08.910Z,19.80
2024-01-24T23:09:36.147Z,23.10
2024-01-24T23:12:03.238Z,21.20
2024-01-24T23:14:30.203Z,20.55
2024-01-24T23:16:57.167Z,18.83
2024-01-24T23:19:24.357Z,20.25
2024-01-24T23:21:51.443Z,20.30
2024-01-24T23:24:18.813Z,20.02
2024-01-24T23:26:45.787Z,18.95
2024-01-24T23:29:12.778Z,20.42
2024-01-24T23:31:39.806Z,25.98
2024-01-24T23:34:07.005Z,17.02
2024-01-24T23:36:34.124Z,21.63
2024-01-24T23:39:01.229Z,16.67
2024-01-24T23:41:28.135Z,18.85
2024-01-24T23:43:55.323Z,19.00
2024-01-24T23:46:22.681Z,23.50
2024-01-24T23:48:50.095Z,18.23
2024-01-24T23:51:18.061Z,18.92
2024-01-24T23:53:45.132Z,22.00
2024-01-24T23:56:13.561Z,21.05
2024-01-24T23:58:40.605Z,19.73
